Time;durP1;ratioP1;P1;durP2;ratioP2;P2;SDS_P1;SDS_P2;PMS_P1;PMS_P2;Temp;Humidity;BMP_temperature;BMP_pressure;BME280_temperature;BME280_humidity;BME280_pressure;Samples;Min_cycle;Max_cycle;Signal;HPM_P1;HPM_P2
2022/07/27 00:00:27;;;;;;;8.35;2.40;;;;;;;13.30;78.37;101951.09;5001501;28;20028;-88
2022/07/27 00:02:53;;;;;;;5.88;2.17;;;;;;;13.24;78.47;101955.97;4997936;28;20030;-88
2022/07/27 00:05:19;;;;;;;5.80;2.15;;;;;;;13.22;78.74;101953.41;5007177;28;20531;-82
2022/07/27 00:07:45;;;;;;;5.28;2.28;;;;;;;13.14;78.97;101945.94;4996576;28;20025;-82
2022/07/27 00:10:10;;;;;;;3.95;2.30;;;;;;;13.15;78.71;101947.63;5001390;28;20030;-81
2022/07/27 00:12:37;;;;;;;5.53;2.25;;;;;;;13.10;79.52;101951.53;5002244;28;20022;-82
2022/07/27 00:15:04;;;;;;;3.92;2.25;;;;;;;13.12;79.42;101947.00;4995149;28;20026;-88
2022/07/27 00:17:30;;;;;;;7.22;2.53;;;;;;;13.03;79.63;101948.47;5005008;28;20109;-81
2022/07/27 00:19:55;;;;;;;5.82;2.55;;;;;;;13.03;80.03;101947.63;4996727;28;20116;-81
2022/07/27 00:22:21;;;;;;;7.15;2.50;;;;;;;13.03;79.64;101943.19;5001103;28;20034;-80
2022/07/27 00:24:47;;;;;;;6.13;2.72;;;;;;;13.03;79.98;101947.63;5003639;28;20033;-80
2022/07/27 00:27:12;;;;;;;6.85;2.80;;;;;;;12.93;79.93;101946.56;4997331;28;20042;-81
2022/07/27 00:29:38;;;;;;;5.10;2.97;;;;;;;12.94;80.18;101951.72;4995720;28;20017;-81
2022/07/27 00:32:04;;;;;;;9.20;3.05;;;;;;;12.84;80.76;101954.13;5005445;28;20512;-81
2022/07/27 00:34:29;;;;;;;6.32;2.85;;;;;;;12.90;80.35;101958.16;4999085;28;20034;-81
2022/07/27 00:36:54;;;;;;;10.80;3.08;;;;;;;12.76;80.54;101943.22;5006526;28;20030;-80
2022/07/27 00:39:20;;;;;;;7.45;2.95;;;;;;;12.77;80.73;101949.34;4996131;28;20026;-81
2022/07/27 00:41:45;;;;;;;6.15;3.10;;;;;;;12.71;81.43;101941.81;4992719;28;20030;-81
2022/07/27 00:44:11;;;;;;;7.28;3.20;;;;;;;12.65;81.39;101940.44;5008322;28;20061;-81
2022/07/27 00:46:37;;;;;;;5.72;2.90;;;;;;;12.66;81.36;101943.91;4991361;28;20429;-81
2022/07/27 00:49:02;;;;;;;6.40;3.33;;;;;;;12.56;81.72;101941.03;4994029;28;20037;-88
2022/07/27 00:51:29;;;;;;;6.80;3.03;;;;;;;12.55;81.76;101940.19;5007039;28;20145;-81
2022/07/27 00:53:55;;;;;;;5.72;2.75;;;;;;;12.51;81.86;101945.75;4991335;28;20427;-82
2022/07/27 00:56:21;;;;;;;6.55;3.10;;;;;;;12.51;81.71;101949.25;5009695;28;20034;-80
2022/07/27 00:58:49;;;;;;;6.38;2.70;;;;;;;12.40;81.78;101940.31;4995509;28;20038;-82
2022/07/27 01:01:18;;;;;;;5.50;2.95;;;;;;;12.40;81.98;101941.16;4990802;28;20085;-82
2022/07/27 01:03:45;;;;;;;4.32;2.80;;;;;;;12.40;82.21;101943.78;4990019;28;20587;-81
2022/07/27 01:06:11;;;;;;;7.50;2.92;;;;;;;12.36;81.74;101942.28;4989842;28;20033;-87
2022/07/27 01:08:36;;;;;;;6.90;2.97;;;;;;;12.30;82.12;101942.69;4992380;28;20822;-81
2022/07/27 01:11:02;;;;;;;6.38;2.95;;;;;;;12.22;81.84;101939.69;4997349;28;20025;-88
2022/07/27 01:13:28;;;;;;;4.38;2.92;;;;;;;12.18;82.53;101938.19;4991268;28;20049;-87
2022/07/27 01:15:54;;;;;;;5.40;3.00;;;;;;;12.21;82.37;101932.72;4991656;28;20025;-87
2022/07/27 01:18:31;;;;;;;4.47;2.70;;;;;;;12.17;82.25;101934.72;4990630;28;20065;-80
2022/07/27 01:20:58;;;;;;;5.35;3.08;;;;;;;12.08;82.64;101939.72;4989068;28;20030;-81
2022/07/27 01:23:25;;;;;;;4.28;2.65;;;;;;;11.98;82.72;101941.22;4990515;28;20022;-81
2022/07/27 01:25:51;;;;;;;7.38;3.50;;;;;;;12.01;83.16;101941.03;4990647;28;20058;-80
2022/07/27 01:28:16;;;;;;;5.07;2.90;;;;;;;11.93;83.57;101942.38;4997530;28;20014;-88
2022/07/27 01:30:42;;;;;;;5.93;2.80;;;;;;;11.87;83.51;101940.09;4991244;28;20038;-81
2022/07/27 01:33:11;;;;;;;5.80;3.03;;;;;;;11.86;83.78;101943.69;5001051;28;20018;-87
2022/07/27 01:35:38;;;;;;;4.30;2.88;;;;;;;11.85;83.18;101947.28;4997850;28;20034;-81
2022/07/27 01:38:05;;;;;;;8.27;3.30;;;;;;;11.81;83.76;101945.75;4989247;28;20026;-81
2022/07/27 01:40:30;;;;;;;5.43;3.42;;;;;;;11.85;83.62;101947.28;4989316;28;20037;-81
2022/07/27 01:42:56;;;;;;;8.27;3.80;;;;;;;11.72;83.85;101943.66;4989371;28;20034;-82
2022/07/27 01:45:21;;;;;;;5.55;3.10;;;;;;;11.72;83.96;101943.66;5005316;28;20033;-81
2022/07/27 01:47:47;;;;;;;6.72;3.25;;;;;;;11.71;83.60;101941.13;4996866;28;20411;-81
2022/07/27 01:50:12;;;;;;;5.43;3.45;;;;;;;11.71;83.52;101936.69;5007788;28;20087;-82
2022/07/27 01:52:40;;;;;;;5.63;3.33;;;;;;;11.66;83.56;101930.88;5008982;28;20029;-81
2022/07/27 01:55:10;;;;;;;5.60;3.45;;;;;;;11.62;84.00;101932.00;4993643;28;20026;-82
2022/07/27 01:57:36;;;;;;;5.18;3.63;;;;;;;11.59;84.46;101934.78;4995775;28;20502;-82
2022/07/27 02:00:10;;;;;;;5.00;3.63;;;;;;;11.58;83.88;101941.00;5003070;28;20030;-87
2022/07/27 02:02:36;;;;;;;8.30;3.75;;;;;;;11.47;84.51;101935.53;5007582;28;20033;-81
2022/07/27 02:05:02;;;;;;;7.10;3.53;;;;;;;11.44;85.02;101935.72;5010216;28;20037;-81
2022/07/27 02:07:27;;;;;;;4.78;3.33;;;;;;;11.48;84.72;101931.97;4993038;28;20372;-80
2022/07/27 02:09:52;;;;;;;4.72;3.20;;;;;;;11.46;84.70;101933.84;5001048;28;20029;-80
2022/07/27 02:12:36;;;;;;;7.57;3.50;;;;;;;11.44;84.86;101925.19;4999731;28;20036;-80
2022/07/27 02:15:13;;;;;;;7.93;3.50;;;;;;;11.43;84.91;101932.25;4992253;28;20026;-81
2022/07/27 02:17:39;;;;;;;8.85;3.65;;;;;;;11.34;84.77;101930.16;4989321;28;20022;-80
2022/07/27 02:20:07;;;;;;;6.53;3.30;;;;;;;11.36;84.92;101933.56;4998668;28;20373;-82
2022/07/27 02:22:32;;;;;;;6.63;3.65;;;;;;;11.29;85.03;101930.44;5007578;28;20792;-88
2022/07/27 02:24:58;;;;;;;7.13;3.33;;;;;;;11.27;85.27;101928.84;4991879;28;20248;-81
2022/07/27 02:27:24;;;;;;;7.07;3.10;;;;;;;11.27;85.15;101924.41;5006272;28;20081;-82
2022/07/27 02:29:49;;;;;;;7.13;3.20;;;;;;;11.20;85.19;101917.78;5003956;28;20026;-88
2022/07/27 02:32:14;;;;;;;5.18;3.30;;;;;;;11.18;85.45;101922.31;4996293;28;20022;-81
2022/07/27 02:34:40;;;;;;;6.90;3.80;;;;;;;11.12;85.58;101920.03;5003293;28;20037;-88
2022/07/27 02:37:05;;;;;;;9.10;3.90;;;;;;;11.10;85.63;101921.06;4995157;28;20029;-88
2022/07/27 02:39:30;;;;;;;7.20;3.63;;;;;;;11.04;86.54;101927.56;4989602;28;20073;-82
2022/07/27 02:41:56;;;;;;;7.68;3.80;;;;;;;11.03;86.19;101928.50;4994691;28;20033;-82
2022/07/27 02:44:21;;;;;;;7.13;3.50;;;;;;;11.00;86.02;101920.78;4999854;28;20037;-81
2022/07/27 02:46:46;;;;;;;5.68;3.20;;;;;;;10.98;86.52;101922.66;5009822;28;20029;-88
2022/07/27 02:49:12;;;;;;;6.85;3.55;;;;;;;10.94;86.55;101921.13;5011668;28;20040;-82
2022/07/27 02:51:37;;;;;;;8.40;3.72;;;;;;;10.95;86.83;101912.28;5010139;28;20369;-81
2022/07/27 02:54:02;;;;;;;5.30;3.88;;;;;;;10.87;87.08;101920.66;5010784;28;20456;-89
2022/07/27 02:56:28;;;;;;;6.55;3.70;;;;;;;10.86;86.78;101912.84;5006865;28;20487;-82
2022/07/27 02:58:54;;;;;;;6.28;3.35;;;;;;;10.84;86.45;101917.34;4993519;28;20022;-82
2022/07/27 03:01:19;;;;;;;5.18;3.35;;;;;;;10.80;86.81;101923.69;4997704;28;20026;-88
2022/07/27 03:03:45;;;;;;;7.68;3.70;;;;;;;10.76;86.92;101919.53;4997170;28;20384;-89
2022/07/27 03:06:10;;;;;;;9.10;4.00;;;;;;;10.81;87.60;101923.63;4994243;28;20125;-88
2022/07/27 03:08:36;;;;;;;4.88;3.58;;;;;;;10.86;87.41;101923.38;4994757;28;20451;-81
2022/07/27 03:11:02;;;;;;;6.82;3.50;;;;;;;10.73;87.19;101922.34;4992103;28;20043;-82
2022/07/27 03:13:28;;;;;;;6.43;3.38;;;;;;;10.74;87.79;101929.31;4994609;28;20033;-89
2022/07/27 03:15:54;;;;;;;5.45;3.25;;;;;;;10.73;87.64;101931.09;4995585;28;20030;-89
2022/07/27 03:18:20;;;;;;;4.65;3.17;;;;;;;10.68;87.96;101936.63;4994497;28;20100;-89
2022/07/27 03:20:45;;;;;;;6.57;3.50;;;;;;;10.69;87.40;101932.22;5013250;28;20030;-82
2022/07/27 03:23:11;;;;;;;5.28;3.20;;;;;;;10.71;87.68;101929.50;5013321;28;20037;-89
2022/07/27 03:25:36;;;;;;;6.03;3.38;;;;;;;10.66;87.79;101927.13;5013068;28;20042;-82
2022/07/27 03:28:02;;;;;;;5.55;3.15;;;;;;;10.64;87.82;101929.00;5010835;28;20034;-81
2022/07/27 03:30:27;;;;;;;5.57;3.25;;;;;;;10.65;88.14;101926.28;5013134;28;20387;-88
2022/07/27 03:32:52;;;;;;;7.95;3.80;;;;;;;10.58;88.54;101919.66;5012620;28;20025;-81
2022/07/27 03:35:18;;;;;;;4.82;3.13;;;;;;;10.58;88.07;101922.31;5012189;28;20439;-88
2022/07/27 03:37:43;;;;;;;6.00;3.50;;;;;;;10.60;87.78;101925.69;5000036;28;20109;-81
2022/07/27 03:40:10;;;;;;;4.75;3.45;;;;;;;10.56;88.11;101928.59;5008783;28;20030;-81
2022/07/27 03:42:36;;;;;;;7.63;3.60;;;;;;;10.54;88.20;101922.56;4996239;28;20080;-82
2022/07/27 03:45:01;;;;;;;7.28;3.60;;;;;;;10.52;88.29;101929.69;5004345;28;20034;-81
2022/07/27 03:47:27;;;;;;;5.97;3.80;;;;;;;10.55;87.62;101927.75;4996604;28;20026;-81
2022/07/27 03:49:52;;;;;;;5.80;3.50;;;;;;;10.48;87.65;101926.41;5007919;28;20104;-88
2022/07/27 03:52:18;;;;;;;7.60;3.55;;;;;;;10.51;88.41;101931.50;5005872;28;20026;-81
2022/07/27 03:54:45;;;;;;;5.60;3.72;;;;;;;10.52;89.12;101934.97;4993207;28;20023;-82
2022/07/27 03:57:10;;;;;;;6.43;3.67;;;;;;;10.54;89.27;101928.69;4999033;28;20061;-82
2022/07/27 03:59:36;;;;;;;6.32;3.33;;;;;;;10.56;89.34;101937.34;4999168;28;20058;-82
2022/07/27 04:02:02;;;;;;;8.77;4.10;;;;;;;10.58;89.68;101930.19;5008142;28;20056;-82
2022/07/27 04:04:28;;;;;;;4.72;3.28;;;;;;;10.58;89.96;101932.84;4994181;28;20025;-81
2022/07/27 04:06:53;;;;;;;5.57;3.33;;;;;;;10.62;90.10;101934.34;5005854;28;20034;-81
2022/07/27 04:09:18;;;;;;;6.03;3.55;;;;;;;10.68;89.45;101931.38;5002666;28;20422;-89
2022/07/27 04:11:45;;;;;;;6.18;3.70;;;;;;;10.70;90.24;101931.28;5007453;28;20103;-82
2022/07/27 04:14:11;;;;;;;6.20;3.88;;;;;;;10.73;90.61;101932.88;5003393;28;20037;-82
2022/07/27 04:16:37;;;;;;;5.57;4.10;;;;;;;10.80;90.16;101926.31;5011064;28;20018;-88
2022/07/27 04:19:02;;;;;;;8.05;4.03;;;;;;;10.80;90.34;101935.06;5007567;28;20480;-81
2022/07/27 04:21:27;;;;;;;6.22;3.83;;;;;;;10.84;90.08;101925.25;4998880;28;20425;-81
2022/07/27 04:23:53;;;;;;;9.02;3.83;;;;;;;10.86;89.59;101929.47;5006225;28;20495;-88
2022/07/27 04:26:18;;;;;;;7.72;4.60;;;;;;;10.86;90.97;101936.53;5005554;28;20062;-88
2022/07/27 04:28:43;;;;;;;7.43;4.53;;;;;;;10.89;90.60;101936.34;4995549;28;20030;-82
2022/07/27 04:31:09;;;;;;;6.32;4.32;;;;;;;10.93;90.99;101938.72;4998960;28;20033;-82
2022/07/27 04:33:34;;;;;;;8.02;4.22;;;;;;;10.96;90.65;101938.53;5008344;28;20022;-81
2022/07/27 04:35:59;;;;;;;6.43;4.13;;;;;;;11.02;91.22;101942.59;5001502;28;20079;-81
2022/07/27 04:38:25;;;;;;;4.30;3.90;;;;;;;11.05;91.13;101941.56;5008619;28;20642;-81
2022/07/27 04:40:50;;;;;;;5.85;3.95;;;;;;;11.05;90.86;101934.50;5011701;28;20022;-81
2022/07/27 04:43:15;;;;;;;7.45;4.10;;;;;;;11.10;90.46;101940.34;5012359;28;20042;-82
2022/07/27 04:45:41;;;;;;;8.25;3.67;;;;;;;11.17;90.07;101946.09;5012186;28;20177;-82
2022/07/27 04:48:11;;;;;;;7.05;4.10;;;;;;;11.18;90.44;101945.16;5012852;28;20105;-81
2022/07/27 04:50:44;;;;;;;6.28;4.30;;;;;;;11.22;90.54;101952.81;5009753;28;20024;-81
2022/07/27 04:53:11;;;;;;;6.93;4.10;;;;;;;11.24;90.91;101950.09;5007910;28;20116;-82
2022/07/27 04:55:40;;;;;;;9.10;4.32;;;;;;;11.28;91.13;101949.81;5011071;28;20109;-81
2022/07/27 04:58:06;;;;;;;8.43;4.10;;;;;;;11.33;90.63;101959.25;5009307;28;20083;-83
2022/07/27 05:00:31;;;;;;;7.30;4.25;;;;;;;11.33;90.84;101961.88;5003532;28;20112;-88
2022/07/27 05:02:57;;;;;;;7.15;5.03;;;;;;;11.36;90.53;101964.34;4992212;28;20022;-82
2022/07/27 05:05:22;;;;;;;8.15;3.90;;;;;;;11.35;90.57;101960.00;4990029;28;20026;-88
2022/07/27 05:07:47;;;;;;;11.07;4.47;;;;;;;11.38;90.94;101962.44;4991927;28;20129;-84
2022/07/27 05:10:13;;;;;;;8.75;4.43;;;;;;;11.41;90.92;101962.25;4998437;28;20052;-83
2022/07/27 05:12:38;;;;;;;9.02;6.25;;;;;;;11.45;91.01;101958.50;5009661;28;20325;-89
2022/07/27 05:15:04;;;;;;;8.07;7.28;;;;;;;11.45;90.97;101963.78;5005499;28;20511;-83
2022/07/27 05:17:30;;;;;;;13.88;8.02;;;;;;;11.46;91.33;101960.19;5011203;28;20033;-83
2022/07/27 05:19:56;;;;;;;15.07;9.95;;;;;;;11.53;91.21;101962.38;5011659;28;20033;-83
2022/07/27 05:22:21;;;;;;;14.40;9.40;;;;;;;11.54;91.43;101971.97;5012024;28;20033;-89
2022/07/27 05:24:47;;;;;;;10.98;7.85;;;;;;;11.63;91.30;101978.50;4996095;28;20479;-88
2022/07/27 05:27:12;;;;;;;9.27;6.07;;;;;;;11.66;91.23;101985.38;5007891;28;20050;-82
2022/07/27 05:29:38;;;;;;;8.65;4.90;;;;;;;11.71;90.93;101976.25;5002794;28;20041;-82
2022/07/27 05:32:04;;;;;;;11.10;4.70;;;;;;;11.74;90.68;101981.34;4999660;28;20080;-83
2022/07/27 05:34:30;;;;;;;7.20;4.32;;;;;;;11.80;91.19;101983.63;5008594;28;20029;-83
2022/07/27 05:36:55;;;;;;;8.10;4.10;;;;;;;11.83;90.67;101978.16;5003636;28;20495;-83
2022/07/27 05:39:22;;;;;;;7.15;4.00;;;;;;;11.89;91.31;101979.56;4999577;28;20109;-89
2022/07/27 05:41:47;;;;;;;8.55;3.85;;;;;;;11.97;91.34;101977.31;5001600;28;20088;-83
2022/07/27 05:44:13;;;;;;;7.80;4.05;;;;;;;12.01;91.21;101973.56;5001891;28;20427;-80
2022/07/27 05:46:38;;;;;;;8.77;4.10;;;;;;;12.07;91.54;101969.69;4994931;28;20727;-81
2022/07/27 05:49:04;;;;;;;11.52;4.20;;;;;;;12.13;91.90;101969.31;5007912;28;20041;-81
2022/07/27 05:51:30;;;;;;;14.82;4.65;;;;;;;12.21;91.63;101975.78;4991943;28;20030;-81
2022/07/27 05:53:56;;;;;;;12.13;4.43;;;;;;;12.27;91.72;101971.91;4989877;28;20445;-88
2022/07/27 05:56:22;;;;;;;9.63;4.53;;;;;;;12.36;91.67;101984.53;5001242;28;20427;-81
2022/07/27 05:58:47;;;;;;;12.75;4.70;;;;;;;12.39;91.70;101986.97;4994550;28;20022;-81
2022/07/27 06:01:12;;;;;;;7.70;4.50;;;;;;;12.52;91.53;101985.25;5004965;28;20361;-82
2022/07/27 06:03:38;;;;;;;8.40;4.40;;;;;;;12.61;91.60;101988.25;4996885;28;20018;-82
2022/07/27 06:08:47;;;;;;;9.48;4.45;;;;;;;12.82;90.58;101992.16;5009821;28;20055;-81
2022/07/27 06:11:13;;;;;;;7.70;4.20;;;;;;;12.92;90.02;101990.63;5010376;28;20419;-81
2022/07/27 06:13:38;;;;;;;8.98;4.38;;;;;;;12.98;89.85;101998.13;5009848;28;20105;-81
2022/07/27 06:16:04;;;;;;;11.73;4.35;;;;;;;13.03;88.60;101992.53;5011959;28;20029;-81
2022/07/27 06:18:29;;;;;;;8.23;4.10;;;;;;;13.12;89.04;101989.28;5001064;28;20022;-81
2022/07/27 06:20:54;;;;;;;7.65;4.00;;;;;;;13.16;89.28;101994.25;5016700;28;20113;-81
2022/07/27 06:23:20;;;;;;;6.93;3.58;;;;;;;13.23;88.84;101997.41;5000963;28;20018;-82
2022/07/27 06:25:45;;;;;;;6.78;3.95;;;;;;;13.33;88.05;101989.69;4997056;28;20129;-81
2022/07/27 06:28:11;;;;;;;5.63;3.28;;;;;;;13.38;88.28;101987.59;5000039;28;20104;-81
2022/07/27 06:30:36;;;;;;;9.23;3.50;;;;;;;13.46;87.83;101985.25;5008137;28;20080;-82
2022/07/27 06:33:05;;;;;;;9.70;3.50;;;;;;;13.55;86.28;101992.56;5002109;28;20018;-81
2022/07/27 06:35:31;;;;;;;5.50;2.88;;;;;;;13.68;86.01;101992.59;4999530;28;20025;-81
2022/07/27 06:37:57;;;;;;;5.43;2.72;;;;;;;13.82;84.87;101994.28;5009932;28;20079;-81
2022/07/27 06:40:22;;;;;;;5.72;2.67;;;;;;;13.91;84.00;101988.34;5011754;28;20026;-82
2022/07/27 06:42:48;;;;;;;8.60;3.83;;;;;;;13.97;83.47;101987.91;5014030;28;20087;-81
2022/07/27 06:45:14;;;;;;;7.13;2.50;;;;;;;14.06;82.12;101988.13;5013464;28;20038;-81
2022/07/27 06:47:40;;;;;;;6.43;2.30;;;;;;;14.16;81.70;101988.31;5013559;28;20033;-88
2022/07/27 06:50:06;;;;;;;7.20;2.47;;;;;;;14.30;80.86;101996.13;5012798;28;20032;-82
2022/07/27 06:52:32;;;;;;;5.00;1.80;;;;;;;14.43;79.51;101990.84;5010850;28;20432;-82
2022/07/27 06:54:58;;;;;;;5.82;2.47;;;;;;;14.56;79.96;101990.81;5012474;28;20135;-88
2022/07/27 06:57:24;;;;;;;14.25;2.30;;;;;;;14.68;79.61;101995.19;4998863;28;20546;-81
2022/07/27 06:59:50;;;;;;;3.75;1.80;;;;;;;14.76;80.55;101986.69;4997839;28;20034;-81
2022/07/27 07:02:18;;;;;;;4.07;2.20;;;;;;;14.98;78.81;101998.25;5004181;28;20034;-81
2022/07/27 07:04:44;;;;;;;7.45;2.22;;;;;;;15.26;78.82;101998.84;5013457;28;20036;-82
2022/07/27 07:07:12;;;;;;;6.65;2.30;;;;;;;15.58;77.71;101999.91;5011701;28;20029;-82
2022/07/27 07:09:37;;;;;;;5.57;1.95;;;;;;;15.98;75.05;101996.81;5014067;28;20033;-82
2022/07/27 07:12:03;;;;;;;4.80;2.03;;;;;;;16.44;74.06;102002.03;5006738;28;20026;-82
2022/07/27 07:14:28;;;;;;;3.92;1.27;;;;;;;16.72;68.97;101994.47;4999266;28;20401;-82
2022/07/27 07:16:54;;;;;;;7.57;1.35;;;;;;;17.11;68.13;102003.66;5012670;28;20475;-82
2022/07/27 07:19:19;;;;;;;6.22;1.42;;;;;;;17.31;66.55;102002.00;5001508;28;20033;-82
2022/07/27 07:21:45;;;;;;;2.85;1.02;;;;;;;17.17;64.52;101995.16;5004942;28;20033;-83
2022/07/27 07:24:10;;;;;;;6.50;1.10;;;;;;;17.35;64.30;101993.63;4996727;28;20034;-83
2022/07/27 07:26:38;;;;;;;4.97;1.42;;;;;;;17.54;65.46;101996.41;5008540;28;20046;-83
2022/07/27 07:29:04;;;;;;;6.32;1.50;;;;;;;17.76;64.40;102002.59;4995612;28;20030;-82
2022/07/27 07:31:29;;;;;;;5.53;1.17;;;;;;;18.14;61.38;102000.13;5002037;28;20040;-81
2022/07/27 07:33:54;;;;;;;7.20;1.50;;;;;;;18.42;62.69;101995.03;4998455;28;20384;-82
2022/07/27 07:36:20;;;;;;;5.75;1.33;;;;;;;18.40;58.75;101996.97;5001838;28;20019;-82
2022/07/27 07:38:45;;;;;;;3.53;1.02;;;;;;;18.05;59.21;101998.28;5008170;28;20042;-81
2022/07/27 07:41:11;;;;;;;5.57;1.00;;;;;;;17.72;60.32;102001.19;4996109;28;20030;-81
2022/07/27 07:43:38;;;;;;;6.40;1.30;;;;;;;17.48;61.76;102004.06;5002181;28;20195;-89
2022/07/27 07:46:04;;;;;;;4.03;1.98;;;;;;;17.53;64.41;102010.69;4995930;28;20030;-82
2022/07/27 07:48:30;;;;;;;7.15;2.08;;;;;;;17.39;63.08;102005.69;5005093;28;20057;-83
2022/07/27 07:50:55;;;;;;;4.45;1.20;;;;;;;17.14;62.09;102006.06;5002770;28;20034;-82
2022/07/27 07:53:22;;;;;;;5.43;1.45;;;;;;;17.14;65.02;102008.72;5003400;28;20030;-82
2022/07/27 07:55:47;;;;;;;4.43;1.17;;;;;;;17.22;63.71;102014.28;4990830;28;20018;-82
2022/07/27 07:58:12;;;;;;;6.28;1.40;;;;;;;17.23;63.58;102010.63;5007444;28;20029;-82
2022/07/27 08:00:38;;;;;;;5.07;1.35;;;;;;;17.22;64.21;102014.28;4995899;28;20026;-82
2022/07/27 08:03:03;;;;;;;4.60;1.38;;;;;;;17.20;64.16;102017.03;5003511;28;20036;-83
2022/07/27 08:05:31;;;;;;;5.38;1.60;;;;;;;17.23;66.09;102014.13;5011114;28;20044;-82
2022/07/27 08:07:57;;;;;;;10.30;1.60;;;;;;;17.25;66.68;102016.66;5001216;28;20041;-81
2022/07/27 08:10:23;;;;;;;6.45;1.50;;;;;;;17.32;66.29;102019.66;5000582;28;20014;-82
2022/07/27 08:12:51;;;;;;;5.00;1.58;;;;;;;17.26;66.71;102030.81;5002250;28;20026;-81
2022/07/27 08:15:18;;;;;;;6.32;1.48;;;;;;;17.21;64.45;102034.69;5004435;28;20041;-81
2022/07/27 08:17:44;;;;;;;9.10;1.60;;;;;;;17.18;65.82;102034.94;5001573;28;20018;-82
2022/07/27 08:20:10;;;;;;;8.75;1.58;;;;;;;17.07;64.81;102031.47;5001930;28;20076;-82
2022/07/27 08:22:37;;;;;;;7.25;1.55;;;;;;;17.02;64.98;102034.53;5004185;28;20092;-82
2022/07/27 08:25:04;;;;;;;5.55;1.30;;;;;;;17.07;66.73;102032.31;5001980;28;20046;-82
2022/07/27 08:27:30;;;;;;;4.13;1.30;;;;;;;17.06;65.44;102029.78;5004161;28;20077;-82
2022/07/27 08:29:56;;;;;;;4.40;1.10;;;;;;;17.03;66.16;102024.72;5001636;28;20022;-81
2022/07/27 08:32:23;;;;;;;11.10;1.55;;;;;;;17.05;65.13;102030.75;5004630;28;20097;-81
2022/07/27 08:34:49;;;;;;;8.43;1.60;;;;;;;17.20;65.41;102027.66;5001853;28;20046;-82
2022/07/27 08:37:15;;;;;;;4.55;1.45;;;;;;;17.33;65.01;102022.19;5002495;28;20055;-83
2022/07/27 08:39:40;;;;;;;5.00;1.25;;;;;;;17.52;60.09;102014.31;4999088;28;20069;-83
2022/07/27 08:42:11;;;;;;;5.13;1.35;;;;;;;17.94;60.13;102016.97;5005133;28;20075;-83
2022/07/27 08:44:40;;;;;;;4.75;1.10;;;;;;;18.30;57.74;102006.75;5003457;28;20021;-82
2022/07/27 08:47:11;;;;;;;5.30;1.17;;;;;;;18.58;57.08;102008.69;5002779;28;20041;-82
2022/07/27 08:49:40;;;;;;;3.80;1.20;;;;;;;18.63;57.00;102008.28;5003474;28;20079;-83
2022/07/27 08:52:11;;;;;;;6.75;1.20;;;;;;;18.52;53.59;102013.72;5002029;28;20029;-82
2022/07/27 08:54:40;;;;;;;7.07;1.35;;;;;;;18.37;54.16;102010.56;5003644;28;20026;-82
2022/07/27 08:57:15;;;;;;;3.83;1.00;;;;;;;18.32;56.23;102010.13;5004299;28;20022;-83
2022/07/27 08:59:40;;;;;;;4.97;1.10;;;;;;;18.14;54.73;102013.44;5005080;28;20034;-82
2022/07/27 09:02:12;;;;;;;5.40;1.40;;;;;;;18.15;56.26;102020.47;5003920;28;20041;-82
2022/07/27 09:04:40;;;;;;;4.25;1.30;;;;;;;18.05;56.50;102026.72;4997690;28;20427;-82
2022/07/27 09:07:06;;;;;;;3.85;1.30;;;;;;;18.09;59.11;102026.34;5000472;28;20108;-82
2022/07/27 09:09:44;;;;;;;6.03;1.60;;;;;;;18.22;59.85;102025.25;4993991;28;20121;-82
2022/07/27 09:12:10;;;;;;;4.22;1.38;;;;;;;18.16;59.32;102022.16;4996995;28;20057;-82
2022/07/27 09:14:39;;;;;;;6.65;1.35;;;;;;;18.20;59.32;102029.88;5003498;28;20046;-82
2022/07/27 09:17:24;;;;;;;5.43;1.60;;;;;;;18.35;61.02;102025.84;4997493;28;20120;-82
2022/07/27 09:20:00;;;;;;;9.05;1.40;;;;;;;18.39;60.19;102017.44;4994467;28;20060;-82
2022/07/27 09:22:52;;;;;;;8.55;1.50;;;;;;;18.50;59.74;102021.00;5001050;28;20456;-82
2022/07/27 09:25:21;;;;;;;3.60;1.17;;;;;;;18.52;57.80;102022.56;5003293;28;20563;-82
2022/07/27 09:27:52;;;;;;;4.93;1.25;;;;;;;18.54;60.48;102023.25;4998807;28;20030;-82
2022/07/27 09:30:20;;;;;;;6.07;1.42;;;;;;;18.68;58.83;102027.38;5006711;28;20376;-82
2022/07/27 09:32:51;;;;;;;6.80;1.85;;;;;;;18.69;58.35;102021.91;5002384;28;20033;-80
2022/07/27 09:35:26;;;;;;;4.97;1.30;;;;;;;18.77;57.07;102022.06;4997228;28;20018;-81
2022/07/27 09:37:52;;;;;;;4.03;1.20;;;;;;;18.86;57.20;102024.91;4997751;28;20031;-82
2022/07/27 09:40:22;;;;;;;5.70;1.67;;;;;;;18.74;57.91;102026.84;5005784;28;20053;-83
2022/07/27 09:43:05;;;;;;;6.80;1.50;;;;;;;18.78;57.08;102018.41;4990400;28;20022;-82
2022/07/27 09:45:34;;;;;;;4.65;1.50;;;;;;;18.60;57.67;102029.88;4994472;28;20034;-83
2022/07/27 09:48:25;;;;;;;5.10;1.48;;;;;;;18.66;59.11;102022.19;5004486;28;20062;-82
2022/07/27 09:50:57;;;;;;;4.72;1.40;;;;;;;18.43;58.73;102023.38;5002400;28;20492;-82
2022/07/27 09:53:24;;;;;;;5.72;1.42;;;;;;;18.40;58.66;102018.28;4999295;28;20034;-82
2022/07/27 09:56:03;;;;;;;6.40;1.75;;;;;;;18.39;58.39;102020.13;4996296;28;20031;-81
2022/07/27 09:58:49;;;;;;;5.53;1.48;;;;;;;18.40;59.82;102023.63;5006511;28;20112;-81
2022/07/27 10:01:30;;;;;;;6.00;1.55;;;;;;;18.31;60.16;102029.75;4996682;28;20480;-82
2022/07/27 10:03:59;;;;;;;5.93;1.42;;;;;;;18.21;59.77;102029.75;4995913;28;20464;-82
2022/07/27 10:06:27;;;;;;;7.00;1.75;;;;;;;18.45;59.69;102026.75;5005732;28;20069;-82
2022/07/27 10:08:53;;;;;;;7.00;1.50;;;;;;;18.52;58.74;102027.88;4997543;28;20391;-82
2022/07/27 10:11:21;;;;;;;3.15;1.15;;;;;;;18.63;57.64;102038.47;4996758;28;20022;-82
2022/07/27 10:13:48;;;;;;;9.57;2.05;;;;;;;18.78;57.87;102030.91;5005407;28;20033;-82
2022/07/27 10:16:23;;;;;;;5.88;1.38;;;;;;;19.03;57.10;102027.72;5008523;28;20026;-81
2022/07/27 10:19:07;;;;;;;7.18;1.48;;;;;;;19.03;58.04;102024.22;5009147;28;20368;-82
2022/07/27 10:21:37;;;;;;;4.13;1.20;;;;;;;19.18;56.72;102025.47;5005366;28;20022;-83
2022/07/27 10:24:05;;;;;;;5.47;1.40;;;;;;;19.16;55.83;102022.09;4995338;28;20484;-83
2022/07/27 10:26:32;;;;;;;5.75;1.60;;;;;;;19.10;56.44;102020.00;4997969;28;20069;-81
2022/07/27 10:29:02;;;;;;;4.75;1.15;;;;;;;19.48;55.94;102015.63;4997603;28;20034;-82
2022/07/27 10:31:31;;;;;;;7.25;1.52;;;;;;;19.80;54.04;102010.81;4996873;28;20498;-82
2022/07/27 10:33:59;;;;;;;6.97;1.60;;;;;;;20.20;52.37;102001.66;5005004;28;20365;-83
2022/07/27 10:36:30;;;;;;;5.95;1.20;;;;;;;20.87;51.07;102005.81;4999890;28;20100;-82
2022/07/27 10:39:02;;;;;;;7.25;1.40;;;;;;;21.01;50.74;101999.06;5000857;28;20030;-83
2022/07/27 10:41:31;;;;;;;3.70;1.33;;;;;;;20.79;48.06;101998.50;4998147;28;20018;-83
2022/07/27 10:44:16;;;;;;;4.60;1.20;;;;;;;20.65;49.32;101996.38;4999222;28;20379;-82
2022/07/27 10:46:45;;;;;;;3.55;1.25;;;;;;;20.24;47.63;102003.88;5001932;28;20491;-82
2022/07/27 10:49:23;;;;;;;5.03;1.15;;;;;;;20.23;52.01;101996.03;5001834;28;20107;-82
2022/07/27 10:51:52;;;;;;;6.20;1.38;;;;;;;20.19;53.05;101994.63;4997638;28;20034;-82
2022/07/27 10:54:21;;;;;;;5.93;1.75;;;;;;;19.98;53.14;101993.03;5008840;28;20033;-82
2022/07/27 10:56:49;;;;;;;7.68;1.65;;;;;;;19.88;53.59;101996.72;5010052;28;20033;-82
2022/07/27 10:59:43;;;;;;;11.73;1.15;;;;;;;19.89;53.95;101993.91;5008794;28;20022;-82
2022/07/27 11:02:13;;;;;;;3.80;1.00;;;;;;;19.81;54.08;101996.47;5008585;28;20038;-82
2022/07/27 11:04:47;;;;;;;3.60;1.10;;;;;;;19.71;51.89;101990.31;4998395;28;20036;-82
2022/07/27 11:07:22;;;;;;;4.63;1.10;;;;;;;19.68;52.19;101990.63;5001012;28;20037;-81
2022/07/27 11:09:50;;;;;;;6.47;1.10;;;;;;;19.61;50.84;101987.69;5009590;28;20052;-82
2022/07/27 11:12:17;;;;;;;3.72;1.30;;;;;;;19.55;50.76;101995.41;5008754;28;20369;-82
2022/07/27 11:14:50;;;;;;;5.68;1.23;;;;;;;19.58;51.32;101990.63;5009785;28;20025;-82
2022/07/27 11:17:19;;;;;;;4.22;1.20;;;;;;;19.64;51.79;101994.56;5008919;28;20109;-81
2022/07/27 11:19:44;;;;;;;4.55;1.45;;;;;;;19.62;51.78;101991.19;5011160;28;20053;-82
2022/07/27 11:22:10;;;;;;;6.82;1.90;;;;;;;19.65;51.96;101997.09;5012783;28;20483;-82
2022/07/27 11:24:35;;;;;;;5.93;1.70;;;;;;;19.33;51.47;101989.38;4999937;28;20034;-83
2022/07/27 11:27:03;;;;;;;5.97;1.17;;;;;;;19.59;52.05;101986.13;5010473;28;20054;-82